This is the latest recevied weather packets stored in our database for station/object K1RFS. If no packets are shown the sender has not sent any weather packets the latest 1 day(s).
| Time | Temp. | Humidity | Pressure | Rain* | Wind** | Luminosity | Snow |
|---|---|---|---|---|---|---|---|
| 1778054228 | 8.89° C | 77% | 996.6 hPa | 0 mm | - | 0 W/m² | - |
| 1778053622 | 8.89° C | 77% | 996.6 hPa | 0 mm | - | 0 W/m² | - |
| 1778053319 | 8.89° C | 76% | 997 hPa | 0 mm | - | 0 W/m² | - |
| 1778052714 | 9.44° C | 76% | 997 hPa | 0 mm | - | 0 W/m² | - |
| 1778052410 | 9.44° C | 75% | 997.2 hPa | 0 mm | - | 0 W/m² | - |
| 1778052108 | 9.44° C | 75% | 997 hPa | 0 mm | - | 0 W/m² | - |
| 1778051805 | 9.44° C | 76% | 996.9 hPa | 0 mm | - | 0 W/m² | - |
| 1778051503 | 9.44° C | 74% | 996.9 hPa | 0 mm | - | 0 W/m² | - |
| 1778051200 | 10° C | 72% | 996.9 hPa | 0 mm | - | 0 W/m² | - |
| 1778050897 | 10° C | 72% | 996.9 hPa | 0 mm | - | 0 W/m² | - |
| 1778049382 | 10.56° C | 66% | 997 hPa | 0 mm | - | 0 W/m² | - |
| 1778049079 | 10.56° C | 65% | 996.9 hPa | 0 mm | - | 0 W/m² | - |
| 1778048170 | 11.11° C | 59% | 996.6 hPa | 0 mm | - | 0 W/m² | - |
| 1778047263 | 11.67° C | 59% | 996.4 hPa | 0 mm | - | 0 W/m² | - |
| 1778046657 | 12.22° C | 54% | 996.5 hPa | 0 mm | - | 0 W/m² | - |
| 1778046354 | 11.67° C | 52% | 996.5 hPa | 0 mm | - | 0 W/m² | - |
| 1778046049 | 11.67° C | 55% | 996.2 hPa | 0 mm | - | 0 W/m² | - |
| 1778045748 | 11.11° C | 57% | 996.5 hPa | 0 mm | - | 0 W/m² | - |
| 1778045446 | 10.56° C | 61% | 996 hPa | 0 mm | - | 0 W/m² | - |
| 1778045144 | 10° C | 62% | 996 hPa | 0 mm | - | 0 W/m² | - |
| 1778044538 | 9.44° C | 64% | 995.8 hPa | 0 mm | - | 0 W/m² | - |
| 1778044235 | 9.44° C | 63% | 996 hPa | 0 mm | - | 0 W/m² | - |
| 1778043630 | 9.44° C | 62% | 995.7 hPa | 0 mm | - | 0 W/m² | - |
| 1778043326 | 9.44° C | 61% | 995.6 hPa | 0 mm | - | 0 W/m² | - |
| 1778043023 | 9.44° C | 60% | 995.6 hPa | 0 mm | - | 0 W/m² | - |
* Rain latest hour (hover to see other rain measurements)
** Current wind speed in m/s (hover to see current wind gust speed)